Pagina principale
METAR-TAF:

METAR-TAF

Aeroporti :

Aeroporto di Perugia

Perugia, Italia

latitudine: 43-05N, longitudine: 012-30E, altezza: 208 m

Osservazione

Il bollettino è stato emesso 1 ora e 12 minuti fa, alle 12:50 UTC
Vento 7 kt da sud/sud-est, variando fra sud-est e sud
Temperature 11°C
Umidità 62%
Pressione 1015 hPa
Visibilità 10 km o più
Nuvoloso ad un'altezza di 5000 ft

METAR: LIRZ 171250Z 16007KT 130V190 9999 BKN050 11/04 Q1015

Ora: 15:02 (14:02 UTC)

Previsione

Il bollettino è stato emesso 3 ore e 2 minuti fa, alle 11:00 UTC
Previsione valida dal 17 alle 12 UTC al 18 alle 12 UTC
Vento 10 kt da sud
Visibilità 10 km o più
Nuvoloso ad un'altezza di 5000 ft
Temporaneamente
dal 17 alle 14 UTC al 17 alle 18 UTC
pioggia
Temporaneamente
dal 18 alle 09 UTC al 18 alle 12 UTC
rovesci di pioggia

TAF: LIRZ 171100Z 1712/1812 19010KT 9999 BKN050 TEMPO 1714/1718 RA TEMPO 1809/1812 SHRA

Osservazioni e previsioni meteorologiche di più di 4000 aeroporti (messaggi METAR e TAF).

Le stazioni disponibili sono rappresentate dai dischi gialli e rossi sulla carta.

Puntare il mouse per vedere il nome della stazione.

Clicca sopra per visualizzare le osservazioni e previsioni meteorologiche.

Per cambiare la mappa : fare clic sui pulsanti verdi con una croce nera per ingrandire, il pulsante verde con un trattino per diminuire, o sulla freccia verde per le mappe adiacenti.


METAR-TAF: